Eagle — WBP2187 — position and weather

sailwx.info

Track history (hours):
 
Tides and Currents Weather Stations Pressure Air Temp Water Temp Dewpoint Dewpoint Depression Visibility Wind Speed Wind Dir Waves Ship Positions

Eagle

Owner: Harley Marine Services, INC, SEATTLE, WA. More information available from US FCC via Universal Licensing System and Coast Guard Vessel Documentation Center.

Last reported at 2016-May-30 15:34 UTC. Time now 2016-May-30 16:28 UTC.
Position N 47°34' W 122°21'.

Length 32 m; draft 4 m.

Type: Tow > 200 m length. MMSI: 366978690.

Date/timePositionNaut miles runAvg speedWind from/ knotsBaromVisibWave heightAir tempDewpointWater temp
2016-May-30 15:34N 47°34' W 122°21'0 0.0
2016-May-30 14:33N 47°34' W 122°21'0 0.0
2016-May-30 13:33N 47°34' W 122°21'0 0.0
2016-May-30 12:33N 47°34' W 122°21'0 0.0
2016-May-30 11:33N 47°34' W 122°21'0 0.0
2016-May-30 10:33N 47°34' W 122°21'0 0.0
2016-May-30 09:33N 47°34' W 122°21'0 0.0
2016-May-30 08:33N 47°34' W 122°21'0 0.0
2016-May-30 07:33N 47°34' W 122°21'0 0.0
2016-May-30 06:33N 47°34' W 122°21'0 0.0
2016-May-30 05:33N 47°34' W 122°21'0 0.0
2016-May-30 04:33N 47°34' W 122°21'0 0.0
2016-May-30 03:33N 47°34' W 122°21'0 0.0
2016-May-30 02:33N 47°34' W 122°21'0 0.0
2016-May-30 01:33N 47°34' W 122°21'0 0.0
2016-May-30 00:33N 47°34' W 122°21'0 0.0
2016-May-29 23:33N 47°34' W 122°21'3 3.5
2016-May-29 22:33N 47°38' W 122°23'3 3.5
2016-May-29 21:33N 47°34' W 122°21'0 0.0
2016-May-29 20:33N 47°34' W 122°21'0 0.0
2016-May-29 19:33N 47°34' W 122°21'0 0.0
2016-May-29 18:33N 47°34' W 122°21'0 0.0
2016-May-29 17:33N 47°34' W 122°21'0 0.0
2016-May-29 16:33N 47°34' W 122°21'0 0.0
2016-May-29 15:34N 47°34' W 122°21'0 0.0
2016-May-29 14:33N 47°34' W 122°21'0 0.0
2016-May-29 13:33N 47°34' W 122°21'0 0.0
2016-May-29 12:33N 47°34' W 122°21'0 0.0
2016-May-29 11:33N 47°34' W 122°21'0 0.0
2016-May-29 10:33N 47°34' W 122°21'0 0.0
2016-May-29 09:33N 47°34' W 122°21'0 0.0
2016-May-29 08:34N 47°34' W 122°21'0 0.0
2016-May-29 07:33N 47°34' W 122°21'0 0.0
2016-May-29 06:33N 47°34' W 122°21'0 0.0
2016-May-29 05:33N 47°34' W 122°21'0 0.0
2016-May-29 04:33N 47°34' W 122°21'0 0.0
2016-May-29 03:33N 47°34' W 122°21'0 0.0
2016-May-29 02:33N 47°34' W 122°21'0 0.0
2016-May-29 01:33N 47°34' W 122°21'0 0.0
2016-May-29 00:33N 47°34' W 122°21'0 0.0
2016-May-28 23:33N 47°34' W 122°21'0 0.0
2016-May-28 22:33N 47°34' W 122°21'0 0.0
2016-May-28 21:33N 47°34' W 122°21'0 0.0
2016-May-28 20:33N 47°34' W 122°21'0 0.0
2016-May-28 19:33N 47°34' W 122°21'0 0.0
2016-May-28 18:33N 47°34' W 122°21'0 0.0
2016-May-28 17:34N 47°34' W 122°21'0 0.0
2016-May-28 16:33N 47°34' W 122°21'0 0.0
2016-May-28 15:33N 47°34' W 122°21'0 0.0
2016-May-28 14:33N 47°34' W 122°21'0 0.0
2016-May-28 13:33N 47°34' W 122°21'0 0.0
2016-May-28 12:33N 47°34' W 122°21'0 0.0
2016-May-28 11:33N 47°34' W 122°21'0 0.0
2016-May-28 10:33N 47°34' W 122°21'0 0.0
2016-May-28 09:33N 47°34' W 122°21'0 0.0
2016-May-28 08:33N 47°34' W 122°21'0 0.0
2016-May-28 07:33N 47°34' W 122°21'0 0.1
2016-May-28 06:33N 47°34' W 122°21'0 0.3
2016-May-28 05:33N 47°35' W 122°21'0 0.2
2016-May-28 04:33N 47°34' W 122°21'0 0.0
2016-May-28 03:33N 47°34' W 122°21'1 1.5
2016-May-28 02:33N 47°35' W 122°22'1 1.2
2016-May-28 01:33N 47°35' W 122°21'0 0.5
2016-May-28 00:33N 47°34' W 122°21'0 0.1
2016-May-27 23:33N 47°34' W 122°21'6 6.3
2016-May-27 22:33N 47°31' W 122°29'1211.7
2016-May-27 21:33N 47°20' W 122°31'6 4.8
2016-May-27 20:16N 47°16' W 122°24'0 0.6
2016-May-27 19:33N 47°16' W 122°24'0 0.0
2016-May-27 18:08N 47°16' W 122°24'0 0.0
2016-May-27 17:33N 47°16' W 122°24'0 0.0
2016-May-27 16:33N 47°16' W 122°24'0 0.0
2016-May-27 15:20N 47°16' W 122°24'0 0.0
2016-May-27 14:16N 47°16' W 122°24'0 0.0
2016-May-27 13:33N 47°16' W 122°24'0 0.0
2016-May-27 12:33N 47°16' W 122°24'0 0.0
2016-May-27 11:33N 47°16' W 122°24'0 0.0
2016-May-27 10:33N 47°16' W 122°24'0 0.0
2016-May-27 09:33N 47°16' W 122°24'0 0.0
2016-May-27 08:33N 47°16' W 122°24'0 0.0
2016-May-27 03:07N 47°16' W 122°24'0 0.0
2016-May-27 02:24N 47°16' W 122°24'0 0.0
2016-May-26 21:29N 47°16' W 122°24'0 0.5
2016-May-26 20:33N 47°16' W 122°24'1 0.8
2016-May-26 19:33N 47°17' W 122°25'1 0.3
2016-May-26 17:11N 47°17' W 122°23'0 0.0
2016-May-26 16:33N 47°17' W 122°23'0 0.0
2016-May-26 15:30N 47°17' W 122°23'0 0.0
2016-May-26 14:32N 47°17' W 122°23'0 0.0
2016-May-26 13:28N 47°17' W 122°23'0 0.0
2016-May-26 12:15N 47°17' W 122°23'0 0.0
2016-May-26 11:30N 47°17' W 122°23'0 0.0
2016-May-26 10:33N 47°17' W 122°23'0 0.0
2016-May-26 09:33N 47°17' W 122°23'0 0.0
2016-May-25 19:08N 47°17' W 122°23'0 0.0
2016-May-25 18:33N 47°17' W 122°23'1 0.1
2016-May-25 12:33N 47°17' W 122°24'7 7.3
2016-May-25 11:33N 47°24' W 122°20'1010.1
2016-May-25 10:33N 47°33' W 122°25'4 3.8
2016-May-25 09:33N 47°35' W 122°21'0 0.0
2016-May-25 08:33N 47°35' W 122°21'0 0.0
2016-May-25 07:33N 47°35' W 122°21'0 0.0
2016-May-25 06:33N 47°35' W 122°21'0 0.0
2016-May-25 05:33N 47°35' W 122°21'0 0.0
2016-May-25 04:33N 47°35' W 122°21'0 0.0
2016-May-25 03:33N 47°35' W 122°21'0 0.0
2016-May-25 02:33N 47°35' W 122°21'0 0.0
2016-May-25 01:33N 47°35' W 122°21'0 0.0
2016-May-25 00:33N 47°35' W 122°21'0 0.0
2016-May-24 23:33N 47°35' W 122°21'0 0.0
2016-May-24 22:33N 47°35' W 122°21'0 0.0
2016-May-24 21:33N 47°35' W 122°21'0 0.0
2016-May-24 20:33N 47°35' W 122°21'0 0.0
2016-May-24 19:33N 47°35' W 122°21'0 0.0
2016-May-24 18:33N 47°35' W 122°21'0 0.0
2016-May-24 17:33N 47°35' W 122°21'0 0.0
2016-May-24 16:33N 47°35' W 122°21'0 0.1
2016-May-24 15:33N 47°35' W 122°21'0 0.1
2016-May-24 14:33N 47°35' W 122°21'3 2.6
2016-May-24 13:33N 47°37' W 122°23'3 3.4
2016-May-24 12:33N 47°34' W 122°21'0 0.0
2016-May-24 11:33N 47°34' W 122°21'0 0.0
2016-May-24 10:33N 47°34' W 122°21'0 0.0
2016-May-24 09:33N 47°34' W 122°21'0 0.0
2016-May-24 08:33N 47°34' W 122°21'0 0.0
2016-May-24 07:33N 47°34' W 122°21'0 0.0
2016-May-24 06:33N 47°34' W 122°21'0 0.0
2016-May-24 05:34N 47°34' W 122°21'0 0.0
2016-May-24 04:33N 47°34' W 122°21'0 0.0
2016-May-24 03:33N 47°34' W 122°21'0 0.0
2016-May-24 02:33N 47°34' W 122°21'0 0.0
2016-May-24 01:33N 47°34' W 122°21'0 0.0
2016-May-24 00:33N 47°34' W 122°21'0 0.0
2016-May-23 23:33N 47°34' W 122°21'0 0.0
2016-May-23 22:33N 47°34' W 122°21'0 0.0
2016-May-23 21:33N 47°34' W 122°21'0 0.0
2016-May-23 20:33N 47°34' W 122°21'0 0.0
2016-May-23 19:33N 47°34' W 122°21'0 0.0
2016-May-23 18:33N 47°34' W 122°21'0 0.0
2016-May-23 17:33N 47°34' W 122°21'0 0.0
2016-May-23 16:33N 47°34' W 122°21'0 0.0
2016-May-23 15:33N 47°34' W 122°21'0 0.0
2016-May-23 14:33N 47°34' W 122°21'0 0.0
2016-May-23 13:33N 47°34' W 122°21'0 0.0
2016-May-23 12:33N 47°34' W 122°21'0 0.0
2016-May-23 11:33N 47°34' W 122°21'0 0.0
2016-May-23 10:33N 47°34' W 122°21'0 0.0
2016-May-23 09:33N 47°34' W 122°21'0 0.0
2016-May-23 08:33N 47°34' W 122°21'0 0.0
2016-May-23 07:33N 47°34' W 122°21'0 0.0
2016-May-23 06:33N 47°34' W 122°21'0 0.0
2016-May-23 05:33N 47°34' W 122°21'0 0.0
2016-May-23 04:33N 47°34' W 122°21'0 0.0
2016-May-23 03:33N 47°34' W 122°21'0 0.0
2016-May-23 02:33N 47°34' W 122°21'0 0.0
2016-May-23 01:33N 47°34' W 122°21'0 0.0
2016-May-23 00:33N 47°34' W 122°21'0 0.0
2016-May-22 23:33N 47°34' W 122°21'0 0.0
2016-May-22 22:33N 47°34' W 122°21'0 0.0
2016-May-22 21:33N 47°34' W 122°21'0 0.0
2016-May-22 20:33N 47°34' W 122°21'0 0.0
2016-May-22 19:33N 47°34' W 122°21'1 1.0
2016-May-22 18:33N 47°35' W 122°21'1 1.0
2016-May-22 17:33N 47°34' W 122°21'0 0.0
2016-May-22 16:33N 47°34' W 122°21'0 0.0
2016-May-22 15:33N 47°34' W 122°21'0 0.4
2016-May-22 14:33N 47°35' W 122°21'6 6.2
2016-May-22 13:33N 47°29' W 122°24'9 9.2
2016-May-22 12:33N 47°20' W 122°25'4 3.6
2016-May-22 11:33N 47°17' W 122°23'0 0.0
2016-May-22 09:31N 47°17' W 122°23'0 0.0
2016-May-22 08:07N 47°17' W 122°23'0 0.0
2016-May-22 07:32N 47°17' W 122°23'0 0.0
2016-May-22 06:32N 47°17' W 122°23'0 0.0
2016-May-22 05:32N 47°17' W 122°23'0 0.0
2016-May-22 04:33N 47°17' W 122°23'0 0.0
2016-May-22 03:13N 47°17' W 122°23'0 0.0
2016-May-22 02:29N 47°17' W 122°23'0 0.0
2016-May-22 01:30N 47°17' W 122°23'2 2.1
2016-May-22 00:33N 47°17' W 122°26'2 1.9
2016-May-21 23:31N 47°17' W 122°23'0 0.0
2016-May-21 21:06N 47°17' W 122°23'0 0.0
2016-May-21 20:33N 47°17' W 122°23'1 0.8
2016-May-21 19:33N 47°17' W 122°24'1 0.7
2016-May-21 18:24N 47°17' W 122°23'4 5.2
2016-May-21 17:33N 47°20' W 122°26'9 8.9
2016-May-21 16:33N 47°29' W 122°26'7 6.6
2016-May-21 15:33N 47°35' W 122°21'0 0.5
2016-May-21 14:33N 47°34' W 122°21'3 3.4
2016-May-21 13:33N 47°37' W 122°23'3 3.4
2016-May-21 12:33N 47°34' W 122°21'0 0.0
2016-May-21 11:33N 47°34' W 122°21'0 0.0
2016-May-21 10:34N 47°34' W 122°21'0 0.0
2016-May-21 09:33N 47°34' W 122°21'0 0.0
2016-May-21 08:33N 47°34' W 122°21'0 0.0
2016-May-21 07:33N 47°34' W 122°21'0 0.0
2016-May-21 06:33N 47°34' W 122°21'0 0.0
2016-May-21 05:34N 47°34' W 122°21'0 0.0
2016-May-21 04:33N 47°34' W 122°21'0 0.0
2016-May-21 03:33N 47°34' W 122°21'0 0.0
2016-May-21 02:33N 47°34' W 122°21'0 0.0
2016-May-21 01:33N 47°34' W 122°21'0 0.0
2016-May-21 00:33N 47°34' W 122°21'0 0.0
2016-May-20 23:33N 47°34' W 122°21'0 0.0
2016-May-20 22:33N 47°34' W 122°21'0 0.1
2016-May-20 21:33N 47°35' W 122°21'3 3.5
2016-May-20 20:33N 47°38' W 122°23'0 0.0
2016-May-20 19:33N 47°38' W 122°23'0 0.0
2016-May-20 18:33N 47°38' W 122°23'0 0.0
2016-May-20 17:33N 47°38' W 122°23'0 0.0
2016-May-20 16:33N 47°38' W 122°23'  
Track history (hours):
 
Tides and Currents Weather Stations Pressure Air Temp Water Temp Dewpoint Dewpoint Depression Visibility Wind Speed Wind Dir Waves Ship Positions

Eagle

Owner: Harley Marine Services, INC, SEATTLE, WA. More information available from US FCC via Universal Licensing System and Coast Guard Vessel Documentation Center.

Last reported at 2016-May-30 15:34 UTC. Time now 2016-May-30 16:28 UTC.
Position N 47°34' W 122°21'.

Length 32 m; draft 4 m.

Type: Tow > 200 m length. MMSI: 366978690.

Date/timePositionNaut miles runAvg speedWind from/ knotsBaromVisibWave heightAir tempDewpointWater temp
2016-May-30 15:34N 47°34' W 122°21'0 0.0
2016-May-30 14:33N 47°34' W 122°21'0 0.0
2016-May-30 13:33N 47°34' W 122°21'0 0.0
2016-May-30 12:33N 47°34' W 122°21'0 0.0
2016-May-30 11:33N 47°34' W 122°21'0 0.0
2016-May-30 10:33N 47°34' W 122°21'0 0.0
2016-May-30 09:33N 47°34' W 122°21'0 0.0
2016-May-30 08:33N 47°34' W 122°21'0 0.0
2016-May-30 07:33N 47°34' W 122°21'0 0.0
2016-May-30 06:33N 47°34' W 122°21'0 0.0
2016-May-30 05:33N 47°34' W 122°21'0 0.0
2016-May-30 04:33N 47°34' W 122°21'0 0.0
2016-May-30 03:33N 47°34' W 122°21'0 0.0
2016-May-30 02:33N 47°34' W 122°21'0 0.0
2016-May-30 01:33N 47°34' W 122°21'0 0.0
2016-May-30 00:33N 47°34' W 122°21'0 0.0
2016-May-29 23:33N 47°34' W 122°21'3 3.5
2016-May-29 22:33N 47°38' W 122°23'3 3.5
2016-May-29 21:33N 47°34' W 122°21'0 0.0
2016-May-29 20:33N 47°34' W 122°21'0 0.0
2016-May-29 19:33N 47°34' W 122°21'0 0.0
2016-May-29 18:33N 47°34' W 122°21'0 0.0
2016-May-29 17:33N 47°34' W 122°21'0 0.0
2016-May-29 16:33N 47°34' W 122°21'0 0.0
2016-May-29 15:34N 47°34' W 122°21'0 0.0
2016-May-29 14:33N 47°34' W 122°21'0 0.0
2016-May-29 13:33N 47°34' W 122°21'0 0.0
2016-May-29 12:33N 47°34' W 122°21'0 0.0
2016-May-29 11:33N 47°34' W 122°21'0 0.0
2016-May-29 10:33N 47°34' W 122°21'0 0.0
2016-May-29 09:33N 47°34' W 122°21'0 0.0
2016-May-29 08:34N 47°34' W 122°21'0 0.0
2016-May-29 07:33N 47°34' W 122°21'0 0.0
2016-May-29 06:33N 47°34' W 122°21'0 0.0
2016-May-29 05:33N 47°34' W 122°21'0 0.0
2016-May-29 04:33N 47°34' W 122°21'0 0.0
2016-May-29 03:33N 47°34' W 122°21'0 0.0
2016-May-29 02:33N 47°34' W 122°21'0 0.0
2016-May-29 01:33N 47°34' W 122°21'0 0.0
2016-May-29 00:33N 47°34' W 122°21'0 0.0
2016-May-28 23:33N 47°34' W 122°21'0 0.0
2016-May-28 22:33N 47°34' W 122°21'0 0.0
2016-May-28 21:33N 47°34' W 122°21'0 0.0
2016-May-28 20:33N 47°34' W 122°21'0 0.0
2016-May-28 19:33N 47°34' W 122°21'0 0.0
2016-May-28 18:33N 47°34' W 122°21'0 0.0
2016-May-28 17:34N 47°34' W 122°21'0 0.0
2016-May-28 16:33N 47°34' W 122°21'0 0.0
2016-May-28 15:33N 47°34' W 122°21'0 0.0
2016-May-28 14:33N 47°34' W 122°21'0 0.0
2016-May-28 13:33N 47°34' W 122°21'0 0.0
2016-May-28 12:33N 47°34' W 122°21'0 0.0
2016-May-28 11:33N 47°34' W 122°21'0 0.0
2016-May-28 10:33N 47°34' W 122°21'0 0.0
2016-May-28 09:33N 47°34' W 122°21'0 0.0
2016-May-28 08:33N 47°34' W 122°21'0 0.0
2016-May-28 07:33N 47°34' W 122°21'0 0.1
2016-May-28 06:33N 47°34' W 122°21'0 0.3
2016-May-28 05:33N 47°35' W 122°21'0 0.2
2016-May-28 04:33N 47°34' W 122°21'0 0.0
2016-May-28 03:33N 47°34' W 122°21'1 1.5
2016-May-28 02:33N 47°35' W 122°22'1 1.2
2016-May-28 01:33N 47°35' W 122°21'0 0.5
2016-May-28 00:33N 47°34' W 122°21'0 0.1
2016-May-27 23:33N 47°34' W 122°21'6 6.3
2016-May-27 22:33N 47°31' W 122°29'1211.7
2016-May-27 21:33N 47°20' W 122°31'6 4.8
2016-May-27 20:16N 47°16' W 122°24'0 0.6
2016-May-27 19:33N 47°16' W 122°24'0 0.0
2016-May-27 18:08N 47°16' W 122°24'0 0.0
2016-May-27 17:33N 47°16' W 122°24'0 0.0
2016-May-27 16:33N 47°16' W 122°24'0 0.0
2016-May-27 15:20N 47°16' W 122°24'0 0.0
2016-May-27 14:16N 47°16' W 122°24'0 0.0
2016-May-27 13:33N 47°16' W 122°24'0 0.0
2016-May-27 12:33N 47°16' W 122°24'0 0.0
2016-May-27 11:33N 47°16' W 122°24'0 0.0
2016-May-27 10:33N 47°16' W 122°24'0 0.0
2016-May-27 09:33N 47°16' W 122°24'0 0.0
2016-May-27 08:33N 47°16' W 122°24'0 0.0
2016-May-27 03:07N 47°16' W 122°24'0 0.0
2016-May-27 02:24N 47°16' W 122°24'0 0.0
2016-May-26 21:29N 47°16' W 122°24'0 0.5
2016-May-26 20:33N 47°16' W 122°24'1 0.8
2016-May-26 19:33N 47°17' W 122°25'1 0.3
2016-May-26 17:11N 47°17' W 122°23'0 0.0
2016-May-26 16:33N 47°17' W 122°23'0 0.0
2016-May-26 15:30N 47°17' W 122°23'0 0.0
2016-May-26 14:32N 47°17' W 122°23'0 0.0
2016-May-26 13:28N 47°17' W 122°23'0 0.0
2016-May-26 12:15N 47°17' W 122°23'0 0.0
2016-May-26 11:30N 47°17' W 122°23'0 0.0
2016-May-26 10:33N 47°17' W 122°23'0 0.0
2016-May-26 09:33N 47°17' W 122°23'0 0.0
2016-May-25 19:08N 47°17' W 122°23'0 0.0
2016-May-25 18:33N 47°17' W 122°23'1 0.1
2016-May-25 12:33N 47°17' W 122°24'7 7.3
2016-May-25 11:33N 47°24' W 122°20'1010.1
2016-May-25 10:33N 47°33' W 122°25'4 3.8
2016-May-25 09:33N 47°35' W 122°21'0 0.0
2016-May-25 08:33N 47°35' W 122°21'0 0.0
2016-May-25 07:33N 47°35' W 122°21'0 0.0
2016-May-25 06:33N 47°35' W 122°21'0 0.0
2016-May-25 05:33N 47°35' W 122°21'0 0.0
2016-May-25 04:33N 47°35' W 122°21'0 0.0
2016-May-25 03:33N 47°35' W 122°21'0 0.0
2016-May-25 02:33N 47°35' W 122°21'0 0.0
2016-May-25 01:33N 47°35' W 122°21'0 0.0
2016-May-25 00:33N 47°35' W 122°21'0 0.0
2016-May-24 23:33N 47°35' W 122°21'0 0.0
2016-May-24 22:33N 47°35' W 122°21'0 0.0
2016-May-24 21:33N 47°35' W 122°21'0 0.0
2016-May-24 20:33N 47°35' W 122°21'0 0.0
2016-May-24 19:33N 47°35' W 122°21'0 0.0
2016-May-24 18:33N 47°35' W 122°21'0 0.0
2016-May-24 17:33N 47°35' W 122°21'0 0.0
2016-May-24 16:33N 47°35' W 122°21'0 0.1
2016-May-24 15:33N 47°35' W 122°21'0 0.1
2016-May-24 14:33N 47°35' W 122°21'3 2.6
2016-May-24 13:33N 47°37' W 122°23'3 3.4
2016-May-24 12:33N 47°34' W 122°21'0 0.0
2016-May-24 11:33N 47°34' W 122°21'0 0.0
2016-May-24 10:33N 47°34' W 122°21'0 0.0
2016-May-24 09:33N 47°34' W 122°21'0 0.0
2016-May-24 08:33N 47°34' W 122°21'0 0.0
2016-May-24 07:33N 47°34' W 122°21'0 0.0
2016-May-24 06:33N 47°34' W 122°21'0 0.0
2016-May-24 05:34N 47°34' W 122°21'0 0.0
2016-May-24 04:33N 47°34' W 122°21'0 0.0
2016-May-24 03:33N 47°34' W 122°21'0 0.0
2016-May-24 02:33N 47°34' W 122°21'0 0.0
2016-May-24 01:33N 47°34' W 122°21'0 0.0
2016-May-24 00:33N 47°34' W 122°21'0 0.0
2016-May-23 23:33N 47°34' W 122°21'0 0.0
2016-May-23 22:33N 47°34' W 122°21'0 0.0
2016-May-23 21:33N 47°34' W 122°21'0 0.0
2016-May-23 20:33N 47°34' W 122°21'0 0.0
2016-May-23 19:33N 47°34' W 122°21'0 0.0
2016-May-23 18:33N 47°34' W 122°21'0 0.0
2016-May-23 17:33N 47°34' W 122°21'0 0.0
2016-May-23 16:33N 47°34' W 122°21'0 0.0
2016-May-23 15:33N 47°34' W 122°21'0 0.0
2016-May-23 14:33N 47°34' W 122°21'0 0.0
2016-May-23 13:33N 47°34' W 122°21'0 0.0
2016-May-23 12:33N 47°34' W 122°21'0 0.0
2016-May-23 11:33N 47°34' W 122°21'0 0.0
2016-May-23 10:33N 47°34' W 122°21'0 0.0
2016-May-23 09:33N 47°34' W 122°21'0 0.0
2016-May-23 08:33N 47°34' W 122°21'0 0.0
2016-May-23 07:33N 47°34' W 122°21'0 0.0
2016-May-23 06:33N 47°34' W 122°21'0 0.0
2016-May-23 05:33N 47°34' W 122°21'0 0.0
2016-May-23 04:33N 47°34' W 122°21'0 0.0
2016-May-23 03:33N 47°34' W 122°21'0 0.0
2016-May-23 02:33N 47°34' W 122°21'0 0.0
2016-May-23 01:33N 47°34' W 122°21'0 0.0
2016-May-23 00:33N 47°34' W 122°21'0 0.0
2016-May-22 23:33N 47°34' W 122°21'0 0.0
2016-May-22 22:33N 47°34' W 122°21'0 0.0
2016-May-22 21:33N 47°34' W 122°21'0 0.0
2016-May-22 20:33N 47°34' W 122°21'0 0.0
2016-May-22 19:33N 47°34' W 122°21'1 1.0
2016-May-22 18:33N 47°35' W 122°21'1 1.0
2016-May-22 17:33N 47°34' W 122°21'0 0.0
2016-May-22 16:33N 47°34' W 122°21'0 0.0
2016-May-22 15:33N 47°34' W 122°21'0 0.4
2016-May-22 14:33N 47°35' W 122°21'6 6.2
2016-May-22 13:33N 47°29' W 122°24'9 9.2
2016-May-22 12:33N 47°20' W 122°25'4 3.6
2016-May-22 11:33N 47°17' W 122°23'0 0.0
2016-May-22 09:31N 47°17' W 122°23'0 0.0
2016-May-22 08:07N 47°17' W 122°23'0 0.0
2016-May-22 07:32N 47°17' W 122°23'0 0.0
2016-May-22 06:32N 47°17' W 122°23'0 0.0
2016-May-22 05:32N 47°17' W 122°23'0 0.0
2016-May-22 04:33N 47°17' W 122°23'0 0.0
2016-May-22 03:13N 47°17' W 122°23'0 0.0
2016-May-22 02:29N 47°17' W 122°23'0 0.0
2016-May-22 01:30N 47°17' W 122°23'2 2.1
2016-May-22 00:33N 47°17' W 122°26'2 1.9
2016-May-21 23:31N 47°17' W 122°23'0 0.0
2016-May-21 21:06N 47°17' W 122°23'0 0.0
2016-May-21 20:33N 47°17' W 122°23'1 0.8
2016-May-21 19:33N 47°17' W 122°24'1 0.7
2016-May-21 18:24N 47°17' W 122°23'4 5.2
2016-May-21 17:33N 47°20' W 122°26'9 8.9
2016-May-21 16:33N 47°29' W 122°26'7 6.6
2016-May-21 15:33N 47°35' W 122°21'0 0.5
2016-May-21 14:33N 47°34' W 122°21'3 3.4
2016-May-21 13:33N 47°37' W 122°23'3 3.4
2016-May-21 12:33N 47°34' W 122°21'0 0.0
2016-May-21 11:33N 47°34' W 122°21'0 0.0
2016-May-21 10:34N 47°34' W 122°21'0 0.0
2016-May-21 09:33N 47°34' W 122°21'0 0.0
2016-May-21 08:33N 47°34' W 122°21'0 0.0
2016-May-21 07:33N 47°34' W 122°21'0 0.0
2016-May-21 06:33N 47°34' W 122°21'0 0.0
2016-May-21 05:34N 47°34' W 122°21'0 0.0
2016-May-21 04:33N 47°34' W 122°21'0 0.0
2016-May-21 03:33N 47°34' W 122°21'0 0.0
2016-May-21 02:33N 47°34' W 122°21'0 0.0
2016-May-21 01:33N 47°34' W 122°21'0 0.0
2016-May-21 00:33N 47°34' W 122°21'0 0.0
2016-May-20 23:33N 47°34' W 122°21'0 0.0
2016-May-20 22:33N 47°34' W 122°21'0 0.1
2016-May-20 21:33N 47°35' W 122°21'3 3.5
2016-May-20 20:33N 47°38' W 122°23'0 0.0
2016-May-20 19:33N 47°38' W 122°23'0 0.0
2016-May-20 18:33N 47°38' W 122°23'0 0.0
2016-May-20 17:33N 47°38' W 122°23'0 0.0
2016-May-20 16:33N 47°38' W 122°23'  

Dump ship's entire track history